Time;durP1;ratioP1;P1;durP2;ratioP2;P2;SDS_P1;SDS_P2;PMS_P1;PMS_P2;Temp;Humidity;BMP_temperature;BMP_pressure;BME280_temperature;BME280_humidity;BME280_pressure;Samples;Min_cycle;Max_cycle;Signal;HPM_P1;HPM_P2
2024/02/08 00:02:07;;;;;;;2.70;2.10;;;;;;;1.45;82.62;99086.16;5114325;27;20212;-50
2024/02/08 00:04:37;;;;;;;4.20;2.23;;;;;;;1.45;82.31;99084.47;5121007;27;20264;-53
2024/02/08 00:07:05;;;;;;;4.23;2.17;;;;;;;1.44;82.16;99087.84;5111210;27;20204;-51
2024/02/08 00:09:33;;;;;;;4.30;2.63;;;;;;;1.44;82.12;99087.84;5113806;28;20579;-51
2024/02/08 00:12:03;;;;;;;4.63;2.27;;;;;;;1.45;81.29;99084.47;5116305;27;20226;-56
2024/02/08 00:14:31;;;;;;;5.30;2.43;;;;;;;1.43;81.45;99095.44;5107288;28;20291;-60
2024/02/08 00:16:59;;;;;;;2.73;1.83;;;;;;;1.43;82.65;99092.91;5108533;27;20239;-53
2024/02/08 00:19:27;;;;;;;5.83;2.40;;;;;;;1.43;82.70;99090.34;5117473;27;20215;-52
2024/02/08 00:21:56;;;;;;;3.00;2.17;;;;;;;1.45;82.52;99087.00;5120310;27;20223;-54
2024/02/08 00:24:24;;;;;;;4.93;2.53;;;;;;;1.52;82.34;99092.16;5123862;27;20200;-54
2024/02/08 00:26:52;;;;;;;3.43;2.60;;;;;;;1.58;82.64;99094.72;5124143;27;20196;-58
2024/02/08 00:29:25;;;;;;;6.50;2.40;;;;;;;1.64;82.54;99100.72;5121063;27;20238;-57
2024/02/08 00:31:53;;;;;;;4.23;2.27;;;;;;;1.65;81.94;99101.56;5110483;28;20209;-53
2024/02/08 00:34:22;;;;;;;5.23;2.50;;;;;;;1.67;82.04;99104.97;5105078;28;20701;-55
2024/02/08 00:36:51;;;;;;;4.17;2.37;;;;;;;1.68;81.62;99107.50;5111248;28;20215;-54
2024/02/08 00:39:18;;;;;;;4.53;2.57;;;;;;;1.69;81.52;99098.22;5113190;27;20565;-54
2024/02/08 00:41:49;;;;;;;7.57;2.83;;;;;;;1.69;81.15;99109.25;5113366;27;20208;-57
2024/02/08 00:44:18;;;;;;;5.47;2.83;;;;;;;1.68;81.10;99111.75;5114545;27;20223;-59
2024/02/08 00:46:51;;;;;;;5.20;3.03;;;;;;;1.66;81.33;99115.97;5109667;28;20624;-58
2024/02/08 00:49:21;;;;;;;5.07;2.90;;;;;;;1.68;82.45;99116.81;5112154;27;20245;-54
2024/02/08 00:51:50;;;;;;;4.63;3.27;;;;;;;1.68;82.16;99117.69;5111113;27;20196;-53
2024/02/08 00:54:18;;;;;;;4.13;2.93;;;;;;;1.72;82.89;99117.72;5109987;27;20206;-57
2024/02/08 00:56:46;;;;;;;3.53;2.70;;;;;;;1.74;82.23;99121.97;5114016;27;20249;-52
2024/02/08 00:59:15;;;;;;;8.47;3.50;;;;;;;1.73;82.80;99125.34;5117011;27;20225;-52
2024/02/08 01:01:43;;;;;;;7.13;3.53;;;;;;;1.72;81.81;99133.78;5115480;27;20222;-55
2024/02/08 01:04:13;;;;;;;6.93;3.20;;;;;;;1.68;82.20;99132.06;5109837;28;20272;-56
2024/02/08 01:06:41;;;;;;;6.37;3.20;;;;;;;1.67;82.34;99127.84;5114289;27;20196;-55
2024/02/08 01:09:09;;;;;;;4.67;3.40;;;;;;;1.67;82.32;99141.38;5110634;27;20233;-53
2024/02/08 01:11:37;;;;;;;5.10;2.93;;;;;;;1.64;82.18;99136.25;5111253;27;20206;-61
2024/02/08 01:14:05;;;;;;;4.40;2.70;;;;;;;1.62;82.97;99137.94;5109650;27;20208;-55
2024/02/08 01:16:44;;;;;;;7.70;3.37;;;;;;;1.64;83.43;99145.56;5114682;27;20212;-55
2024/02/08 01:19:14;;;;;;;8.27;3.40;;;;;;;1.64;82.11;99146.41;5113154;27;20586;-54
2024/02/08 01:21:43;;;;;;;5.57;2.93;;;;;;;1.63;81.92;99148.94;5129867;27;20223;-54
2024/02/08 01:24:12;;;;;;;5.27;2.90;;;;;;;1.62;82.85;99147.22;5126076;27;20200;-53
2024/02/08 01:26:41;;;;;;;8.33;3.23;;;;;;;1.58;81.95;99150.56;5108166;27;20216;-54
2024/02/08 01:29:09;;;;;;;4.60;3.37;;;;;;;1.54;82.49;99153.91;5106772;27;20206;-52
2024/02/08 01:31:38;;;;;;;5.67;3.10;;;;;;;1.49;82.86;99150.50;5118634;27;20539;-54
2024/02/08 01:34:07;;;;;;;4.27;2.80;;;;;;;1.43;81.95;99158.88;5109192;27;20200;-51
2024/02/08 01:36:39;;;;;;;4.77;2.90;;;;;;;1.36;82.14;99157.13;5108094;28;20204;-56
2024/02/08 01:39:13;;;;;;;3.60;2.73;;;;;;;1.26;81.52;99158.72;5111499;27;20265;-53
2024/02/08 01:41:42;;;;;;;6.27;3.07;;;;;;;1.19;81.68;99149.31;5110952;28;20299;-56
2024/02/08 01:44:13;;;;;;;5.03;3.20;;;;;;;1.14;82.36;99143.31;5105999;28;20203;-53
2024/02/08 01:46:41;;;;;;;4.87;3.10;;;;;;;1.09;82.38;99150.03;5112662;27;20204;-51
2024/02/08 01:49:13;;;;;;;5.10;3.17;;;;;;;1.04;81.67;99151.69;5113919;27;20306;-65
2024/02/08 01:51:43;;;;;;;6.00;3.63;;;;;;;1.04;83.27;99149.16;5115848;27;20309;-53
2024/02/08 01:54:14;;;;;;;5.33;3.33;;;;;;;1.05;82.52;99149.16;5108978;28;20203;-51
2024/02/08 01:56:42;;;;;;;4.73;2.90;;;;;;;1.05;82.85;99151.69;5118441;27;20207;-54
2024/02/08 01:59:11;;;;;;;3.50;2.77;;;;;;;1.03;81.25;99149.97;5122862;27;20200;-51
2024/02/08 02:01:45;;;;;;;5.27;2.90;;;;;;;1.02;81.85;99145.72;5115936;28;20196;-51
2024/02/08 02:04:15;;;;;;;5.60;2.93;;;;;;;1.00;81.61;99144.88;5114789;27;20206;-52
2024/02/08 02:06:46;;;;;;;7.27;2.90;;;;;;;0.98;81.31;99146.53;5111756;27;20264;-52
2024/02/08 02:09:23;;;;;;;5.37;3.27;;;;;;;0.94;81.52;99145.63;5111722;28;20211;-52
2024/02/08 02:11:55;;;;;;;4.50;2.40;;;;;;;0.93;81.39;99152.41;5107747;28;20200;-53
2024/02/08 02:14:29;;;;;;;4.73;3.10;;;;;;;0.90;81.21;99148.97;5108093;28;20249;-52
2024/02/08 02:17:10;;;;;;;6.63;2.70;;;;;;;0.88;81.56;99154.00;5116742;28;20239;-50
2024/02/08 02:19:38;;;;;;;3.93;2.30;;;;;;;0.86;81.22;99152.31;5110042;28;20203;-50
2024/02/08 02:22:09;;;;;;;4.13;2.20;;;;;;;0.84;80.78;99159.03;5115210;28;20334;-53
2024/02/08 02:24:40;;;;;;;5.30;2.50;;;;;;;0.80;79.75;99158.13;5116717;28;20195;-52
2024/02/08 02:27:10;;;;;;;3.80;2.27;;;;;;;0.78;80.45;99159.81;5105912;28;20219;-55
2024/02/08 02:29:39;;;;;;;6.63;2.83;;;;;;;0.73;80.05;99152.13;5112331;28;21540;-50
2024/02/08 02:32:12;;;;;;;2.70;2.10;;;;;;;0.71;80.81;99163.09;5111703;28;20200;-54
2024/02/08 02:34:42;;;;;;;2.87;2.27;;;;;;;0.66;80.98;99163.03;5122251;28;20302;-49
2024/02/08 02:37:12;;;;;;;5.93;2.60;;;;;;;0.63;80.33;99164.69;5111026;28;20224;-50
2024/02/08 02:39:40;;;;;;;4.47;2.60;;;;;;;0.60;80.43;99162.94;5110234;28;20558;-55
2024/02/08 02:42:08;;;;;;;3.40;2.23;;;;;;;0.60;81.55;99162.94;5110927;28;20223;-54
2024/02/08 02:44:37;;;;;;;2.53;2.03;;;;;;;0.64;81.01;99161.31;5110734;28;20221;-53
2024/02/08 02:47:05;;;;;;;2.70;2.20;;;;;;;0.63;80.52;99164.69;5105334;28;20204;-53
2024/02/08 02:49:36;;;;;;;4.07;2.20;;;;;;;0.62;80.53;99171.41;5110723;28;20200;-56
2024/02/08 02:52:08;;;;;;;5.57;2.90;;;;;;;0.63;81.59;99180.72;5119650;28;20280;-52
2024/02/08 02:54:39;;;;;;;5.57;2.67;;;;;;;0.63;80.01;99179.88;5107741;28;20257;-53
2024/02/08 02:57:10;;;;;;;3.53;2.60;;;;;;;0.61;80.13;99181.53;5111152;28;20207;-52
2024/02/08 02:59:39;;;;;;;4.37;3.10;;;;;;;0.59;81.00;99179.00;5115068;27;20640;-56
2024/02/08 03:02:08;;;;;;;3.80;2.43;;;;;;;0.61;81.00;99179.84;5110649;28;20257;-54
2024/02/08 03:04:37;;;;;;;3.40;2.63;;;;;;;0.60;80.64;99178.16;5114989;28;20589;-55
2024/02/08 03:07:06;;;;;;;5.13;2.50;;;;;;;0.60;80.37;99195.91;5115313;28;20211;-54
2024/02/08 03:09:34;;;;;;;4.00;2.67;;;;;;;0.59;79.56;99193.31;5113608;28;20204;-52
2024/02/08 03:12:04;;;;;;;5.10;2.43;;;;;;;0.57;79.91;99197.53;5118452;27;20196;-56
2024/02/08 03:14:34;;;;;;;4.87;2.83;;;;;;;0.53;78.59;99185.66;5116448;27;20273;-54
2024/02/08 03:17:02;;;;;;;3.67;2.40;;;;;;;0.46;78.43;99198.22;5116617;27;20605;-63
2024/02/08 03:19:35;;;;;;;4.07;2.13;;;;;;;0.42;79.64;99191.41;5116420;27;20204;-54
2024/02/08 03:22:07;;;;;;;3.20;2.20;;;;;;;0.42;79.77;99191.41;5117861;27;20574;-57
2024/02/08 03:24:36;;;;;;;4.33;2.33;;;;;;;0.43;80.57;99198.16;5114211;28;20273;-52
2024/02/08 03:27:07;;;;;;;3.70;2.37;;;;;;;0.42;79.70;99200.69;5116153;27;20196;-55
2024/02/08 03:29:36;;;;;;;5.30;2.60;;;;;;;0.39;78.88;99198.94;5111552;27;20239;-54
2024/02/08 03:32:04;;;;;;;4.77;2.20;;;;;;;0.35;79.63;99203.94;5114127;28;20718;-53
2024/02/08 03:34:35;;;;;;;2.43;2.23;;;;;;;0.31;79.93;99208.13;5113984;27;20195;-52
2024/02/08 03:37:06;;;;;;;4.53;2.33;;;;;;;0.31;80.57;99207.28;5109220;28;20202;-58
2024/02/08 03:39:35;;;;;;;4.77;2.43;;;;;;;0.29;80.06;99208.91;5117258;27;20230;-52
2024/02/08 03:42:06;;;;;;;4.90;2.60;;;;;;;0.30;80.46;99210.63;5114136;27;20366;-53
2024/02/08 03:44:34;;;;;;;5.27;2.30;;;;;;;0.31;80.70;99209.81;5121895;27;20640;-56
2024/02/08 03:47:04;;;;;;;6.50;2.67;;;;;;;0.31;80.48;99214.88;5118930;27;20659;-54
2024/02/08 03:49:33;;;;;;;3.20;2.53;;;;;;;0.34;80.27;99222.53;5106981;28;20670;-52
2024/02/08 03:52:01;;;;;;;4.50;2.37;;;;;;;0.36;80.30;99221.69;5119577;27;20570;-56
2024/02/08 03:54:31;;;;;;;4.80;2.10;;;;;;;0.39;80.27;99218.38;5112774;27;20239;-52
2024/02/08 03:57:04;;;;;;;5.70;2.53;;;;;;;0.39;80.00;99229.34;5115683;27;20191;-54
2024/02/08 03:59:40;;;;;;;5.27;1.90;;;;;;;0.42;80.04;99224.34;5118388;27;20203;-52
2024/02/08 04:02:10;;;;;;;4.60;2.50;;;;;;;0.45;80.03;99226.94;5114748;27;20234;-51
2024/02/08 04:04:53;;;;;;;3.80;2.30;;;;;;;0.47;80.11;99235.38;5118068;27;20208;-57
2024/02/08 04:07:22;;;;;;;3.27;2.07;;;;;;;0.49;79.40;99232.91;5114156;27;20608;-55
2024/02/08 04:09:56;;;;;;;5.40;2.00;;;;;;;0.51;79.86;99235.44;5111205;28;20270;-52
2024/02/08 04:54:09;;;;;;;5.43;2.93;;;;;;;0.53;77.72;99239.72;5113414;27;20786;-52
2024/02/08 04:56:38;;;;;;;5.77;3.40;;;;;;;0.51;78.41;99235.44;5113508;27;20200;-51
2024/02/08 04:59:06;;;;;;;5.70;3.33;;;;;;;0.52;77.98;99244.78;5112944;27;20253;-53
2024/02/08 05:01:53;;;;;;;4.03;3.10;;;;;;;0.52;78.54;99250.69;5116755;27;20227;-55
2024/02/08 05:04:23;;;;;;;5.13;3.33;;;;;;;0.56;79.02;99249.06;5108278;27;20208;-51
2024/02/08 05:06:51;;;;;;;4.17;2.93;;;;;;;0.53;78.68;99243.94;5116069;27;20575;-52
2024/02/08 05:09:21;;;;;;;5.37;3.40;;;;;;;0.54;78.83;99250.69;5119924;27;20208;-54
2024/02/08 05:11:49;;;;;;;5.47;3.17;;;;;;;0.53;79.31;99243.94;5113212;27;20235;-51
2024/02/08 05:14:22;;;;;;;4.10;3.40;;;;;;;0.54;79.38;99240.56;5111025;27;20196;-52
2024/02/08 05:16:54;;;;;;;5.47;3.00;;;;;;;0.56;79.00;99249.91;5118292;27;20239;-54
2024/02/08 05:19:25;;;;;;;5.70;3.50;;;;;;;0.54;78.71;99256.63;5117057;27;20196;-54
2024/02/08 05:21:58;;;;;;;5.13;3.37;;;;;;;0.52;78.45;99250.69;5118151;27;20659;-52
2024/02/08 05:24:28;;;;;;;4.10;2.97;;;;;;;0.51;78.10;99250.66;5111749;28;20588;-50
2024/02/08 05:26:56;;;;;;;5.10;3.17;;;;;;;0.45;78.05;99252.28;5111073;27;20658;-51
2024/02/08 05:29:24;;;;;;;3.70;2.77;;;;;;;0.42;78.33;99253.91;5105024;28;20204;-51
2024/02/08 05:31:53;;;;;;;6.80;3.53;;;;;;;0.39;79.18;99246.25;5112198;27;20563;-48
2024/02/08 05:34:25;;;;;;;4.27;3.10;;;;;;;0.40;79.36;99253.84;5105540;28;20200;-51
2024/02/08 05:36:55;;;;;;;4.50;3.57;;;;;;;0.40;80.01;99253.84;5125654;27;20199;-53
2024/02/08 05:39:24;;;;;;;4.67;3.70;;;;;;;0.41;79.48;99253.06;5115791;27;20207;-49
2024/02/08 05:41:55;;;;;;;5.50;3.67;;;;;;;0.40;79.70;99258.06;5118061;27;20253;-57
2024/02/08 05:44:29;;;;;;;4.07;2.90;;;;;;;0.42;79.64;99254.75;5106758;28;20637;-55
2024/02/08 05:47:07;;;;;;;4.77;3.37;;;;;;;0.40;78.91;99256.38;5107754;28;20206;-53
2024/02/08 05:49:38;;;;;;;5.33;3.60;;;;;;;0.42;79.32;99261.50;5117980;27;20206;-53
2024/02/08 05:52:08;;;;;;;5.83;3.30;;;;;;;0.39;79.11;99259.75;5113086;27;20203;-61
2024/02/08 05:54:39;;;;;;;6.13;3.60;;;;;;;0.38;79.69;99258.06;5116980;27;20207;-51
2024/02/08 05:57:10;;;;;;;7.20;4.07;;;;;;;0.40;79.31;99269.06;5100753;28;20253;-53
2024/02/08 05:59:39;;;;;;;4.33;3.23;;;;;;;0.40;79.62;99266.53;5115570;27;20290;-50
2024/02/08 06:02:17;;;;;;;5.40;3.83;;;;;;;0.44;78.80;99267.44;5114095;27;20218;-52
2024/02/08 06:04:50;;;;;;;5.00;3.50;;;;;;;0.43;78.59;99279.25;5109854;28;20222;-53
2024/02/08 06:07:21;;;;;;;5.93;3.80;;;;;;;0.39;79.22;99274.13;5111604;28;20625;-53
2024/02/08 06:10:07;;;;;;;6.67;4.23;;;;;;;0.39;78.92;99279.19;5111361;28;20203;-51
2024/02/08 06:12:43;;;;;;;4.17;3.40;;;;;;;0.34;79.47;99279.13;5110700;28;20227;-63
2024/02/08 06:15:21;;;;;;;5.67;3.83;;;;;;;0.33;79.33;99279.06;5105027;28;20252;-52
2024/02/08 06:17:57;;;;;;;4.50;3.50;;;;;;;0.36;79.82;99287.56;5109200;28;20266;-52
2024/02/08 06:20:33;;;;;;;6.93;3.83;;;;;;;0.40;79.57;99291.88;5115219;28;20558;-55
2024/02/08 06:23:16;;;;;;;9.60;4.37;;;;;;;0.40;78.91;99286.81;5102842;28;20594;-53
2024/02/08 06:26:27;;;;;;;5.90;3.93;;;;;;;0.41;78.89;99282.63;5115882;28;20207;-53
2024/02/08 06:28:41;;;;;;;5.23;3.57;;;;;;;0.46;79.25;99296.19;5111884;28;20212;-54
2024/02/08 06:31:14;;;;;;;5.10;4.23;;;;;;;0.47;79.54;99296.22;5114650;28;20199;-54
2024/02/08 06:34:08;;;;;;;6.07;4.20;;;;;;;0.46;79.68;99299.59;5119586;27;20226;-50
2024/02/08 06:36:33;;;;;;;6.50;4.13;;;;;;;0.49;79.18;99296.25;5111374;27;20219;-55
2024/02/08 06:39:20;;;;;;;6.43;4.10;;;;;;;0.52;78.32;99303.06;5116023;27;20565;-53
2024/02/08 06:42:07;;;;;;;6.77;3.70;;;;;;;0.53;78.99;99302.22;5115643;28;20603;-52
2024/02/08 06:44:52;;;;;;;5.23;3.90;;;;;;;0.55;78.56;99303.09;5110765;27;20296;-53
2024/02/08 06:47:54;;;;;;;8.63;4.77;;;;;;;0.52;79.24;99298.84;5112649;27;20206;-53
2024/02/08 07:37:26;;;;;;;7.97;4.50;;;;;;;0.88;80.05;99321.38;5110923;27;20207;-54
2024/02/08 07:40:01;;;;;;;6.43;4.50;;;;;;;0.91;79.08;99331.56;5104747;27;20203;-57
2024/02/08 07:42:32;;;;;;;6.87;4.50;;;;;;;0.93;77.72;99342.63;5113393;27;20196;-52
2024/02/08 07:45:04;;;;;;;8.97;3.93;;;;;;;0.88;78.00;99335.75;5109936;28;20246;-54
2024/02/08 07:47:33;;;;;;;8.97;4.93;;;;;;;0.81;78.89;99332.28;5107360;27;20319;-55
2024/02/08 07:50:05;;;;;;;7.30;4.50;;;;;;;0.76;79.11;99325.41;5116745;27;20219;-51
2024/02/08 07:52:38;;;;;;;6.23;4.67;;;;;;;0.80;79.36;99328.03;5118728;27;20312;-55
2024/02/08 07:55:20;;;;;;;10.60;5.23;;;;;;;0.81;77.77;99328.88;5107628;27;20199;-53
2024/02/08 07:57:57;;;;;;;7.73;4.83;;;;;;;0.88;79.54;99334.06;5110794;27;20568;-57
2024/02/08 08:00:41;;;;;;;6.67;4.83;;;;;;;0.89;79.00;99335.78;5118677;27;20219;-58
2024/02/08 08:03:15;;;;;;;11.40;5.50;;;;;;;0.89;78.02;99342.53;5113996;28;20571;-56
2024/02/08 08:05:45;;;;;;;9.90;5.80;;;;;;;0.89;78.80;99345.09;5112969;27;20220;-55
2024/02/08 08:08:24;;;;;;;11.97;5.03;;;;;;;0.88;78.44;99346.75;5111936;27;20196;-54
2024/02/08 08:10:56;;;;;;;7.80;4.80;;;;;;;0.85;78.12;99341.66;5114888;27;20694;-54
2024/02/08 08:13:50;;;;;;;8.10;5.63;;;;;;;0.82;78.03;99339.06;5104286;28;20197;-55
2024/02/08 08:19:08;;;;;;;9.30;4.70;;;;;;;0.89;78.80;99338.31;5072026;28;20289;-53
2024/02/08 08:24:25;;;;;;;10.10;5.40;;;;;;;0.91;78.45;99338.34;5069392;28;20684;-52
2024/02/08 08:27:06;;;;;;;10.40;5.20;;;;;;;0.93;79.63;99332.47;5065900;28;20217;-54
2024/02/08 08:29:43;;;;;;;7.30;4.93;;;;;;;1.07;80.58;99325.06;5074452;28;20548;-53
2024/02/08 08:37:46;;;;;;;9.27;5.53;;;;;;;1.43;79.34;99329.78;5057162;28;20197;-55
2024/02/08 08:40:20;;;;;;;7.97;5.17;;;;;;;1.54;80.21;99336.69;5079210;28;20201;-54
2024/02/08 08:42:50;;;;;;;11.60;5.10;;;;;;;1.65;78.90;99332.63;5070102;28;20766;-54
2024/02/08 08:45:19;;;;;;;8.07;4.33;;;;;;;1.73;78.31;99331.06;5075571;28;20217;-54
2024/02/08 08:47:51;;;;;;;14.20;5.33;;;;;;;1.79;77.17;99338.72;5070701;28;20220;-54
2024/02/08 08:50:20;;;;;;;8.43;5.43;;;;;;;1.74;75.67;99332.75;5070816;28;20202;-52
2024/02/08 08:52:49;;;;;;;6.67;4.70;;;;;;;1.68;76.48;99330.97;5075655;28;20243;-52
2024/02/08 08:55:21;;;;;;;14.23;5.20;;;;;;;1.66;76.56;99336.88;5070835;28;20281;-59
2024/02/08 08:58:00;;;;;;;9.07;4.30;;;;;;;1.63;76.98;99336.84;5073030;28;20691;-53
2024/02/08 09:00:35;;;;;;;10.07;4.90;;;;;;;1.60;76.44;99341.88;5078797;28;20374;-56
2024/02/08 09:03:05;;;;;;;10.80;4.87;;;;;;;1.63;77.07;99341.91;5072860;28;20207;-53
2024/02/08 09:05:36;;;;;;;9.20;4.43;;;;;;;1.60;75.56;99344.41;5070356;28;20706;-59
2024/02/08 09:08:09;;;;;;;7.83;4.60;;;;;;;1.56;76.00;99342.66;5069165;28;20216;-55
2024/02/08 09:10:40;;;;;;;8.87;4.63;;;;;;;1.56;76.90;99340.13;5070120;28;20723;-57
2024/02/08 09:13:15;;;;;;;10.00;4.17;;;;;;;1.61;77.31;99336.81;5070285;28;20205;-55
2024/02/08 09:15:55;;;;;;;9.70;4.90;;;;;;;1.71;76.73;99345.41;5068628;28;20197;-54
2024/02/08 09:18:55;;;;;;;9.83;5.27;;;;;;;1.80;76.33;99335.34;5106203;27;20231;-62
2024/02/08 09:21:14;;;;;;;9.10;4.17;;;;;;;1.81;75.46;99341.31;5111293;27;20323;-59
2024/02/08 09:23:44;;;;;;;7.47;4.43;;;;;;;1.77;75.18;99340.41;5112183;27;20211;-53
2024/02/08 09:26:12;;;;;;;6.73;4.43;;;;;;;1.80;75.42;99345.50;5115311;27;20593;-53
2024/02/08 09:28:42;;;;;;;8.80;3.70;;;;;;;1.83;72.95;99342.16;5114205;27;20202;-58
2024/02/08 09:31:16;;;;;;;5.53;3.50;;;;;;;1.80;73.38;99335.34;5108332;27;20654;-52
2024/02/08 09:33:47;;;;;;;7.53;3.93;;;;;;;1.85;73.66;99331.19;5106033;28;20212;-58
2024/02/08 09:36:16;;;;;;;9.17;3.50;;;;;;;1.83;73.30;99332.00;5115257;27;20709;-61
2024/02/08 09:38:45;;;;;;;9.27;3.87;;;;;;;1.85;74.57;99326.13;5112976;28;20208;-59
2024/02/08 09:41:16;;;;;;;9.83;3.77;;;;;;;1.90;73.59;99331.22;5109573;28;20253;-62
2024/02/08 09:43:46;;;;;;;5.13;3.27;;;;;;;1.98;73.55;99333.88;5116540;27;20292;-55
2024/02/08 09:46:49;;;;;;;6.20;3.70;;;;;;;1.95;73.51;99334.66;5128323;27;20766;-56
2024/02/08 09:49:12;;;;;;;6.67;3.70;;;;;;;1.99;73.43;99331.34;5100243;28;20254;-53
2024/02/08 09:51:51;;;;;;;7.67;4.30;;;;;;;1.97;71.96;99327.94;5111221;28;20203;-54
2024/02/08 09:54:27;;;;;;;8.50;3.80;;;;;;;1.95;71.92;99329.59;5114471;27;20203;-54
2024/02/08 09:57:01;;;;;;;6.37;3.90;;;;;;;1.91;71.81;99330.41;5108026;28;20199;-61
2024/02/08 10:02:24;;;;;;;6.90;4.03;;;;;;;1.95;71.53;99339.75;5099898;27;20206;-53
2024/02/08 10:04:57;;;;;;;7.57;3.87;;;;;;;1.96;70.52;99341.47;5113665;28;20215;-55
2024/02/08 10:07:34;;;;;;;5.30;4.03;;;;;;;1.90;69.81;99331.22;5109926;28;20291;-55
2024/02/08 10:10:17;;;;;;;7.17;4.00;;;;;;;1.85;69.45;99327.81;5115889;27;20190;-53
2024/02/08 10:13:04;;;;;;;8.43;4.03;;;;;;;1.88;70.14;99323.63;5113507;28;20246;-57
2024/02/08 10:15:40;;;;;;;8.13;5.10;;;;;;;1.87;69.14;99301.56;5110316;28;20616;-54
2024/02/08 10:18:10;;;;;;;10.20;5.63;;;;;;;1.82;69.70;99312.53;5107608;28;20223;-60
2024/02/08 10:20:46;;;;;;;11.00;5.50;;;;;;;1.79;69.84;99305.72;5112396;28;20211;-52
2024/02/08 10:23:33;;;;;;;9.40;5.60;;;;;;;1.76;70.25;99305.66;5099304;28;20292;-55
2024/02/08 10:28:51;;;;;;;9.87;5.37;;;;;;;1.87;70.42;99311.72;5110297;28;20195;-52
2024/02/08 10:31:22;;;;;;;10.43;5.37;;;;;;;1.84;70.16;99319.34;5116598;28;20203;-55
2024/02/08 10:33:57;;;;;;;12.60;5.47;;;;;;;1.90;71.21;99316.00;5109508;28;20207;-51
2024/02/08 10:36:35;;;;;;;7.70;4.13;;;;;;;1.93;69.99;99309.25;5116439;28;20198;-56
2024/02/08 10:39:23;;;;;;;9.93;4.10;;;;;;;1.94;69.32;99307.56;5112599;28;20286;-64
2024/02/08 10:41:59;;;;;;;8.00;3.90;;;;;;;1.97;68.82;99292.38;5114188;28;20757;-53
2024/02/08 10:44:29;;;;;;;5.67;3.40;;;;;;;2.00;68.59;99289.88;5111040;28;20616;-56
2024/02/08 10:47:06;;;;;;;7.90;3.57;;;;;;;2.04;68.63;99290.75;5109974;28;20218;-58
2024/02/08 10:49:42;;;;;;;5.83;3.70;;;;;;;2.13;68.35;99289.13;5114359;28;20211;-54
2024/02/08 10:52:16;;;;;;;7.33;3.53;;;;;;;2.23;68.74;99274.00;5108655;28;20242;-58
2024/02/08 10:54:48;;;;;;;6.10;3.83;;;;;;;2.26;66.99;99274.88;5106670;28;20662;-53
2024/02/08 11:00:49;;;;;;;7.97;3.23;;;;;;;2.32;66.75;99272.41;5088910;28;20208;-58
2024/02/08 11:03:08;;;;;;;9.27;3.40;;;;;;;2.35;67.46;99269.84;5109184;28;20702;-54
2024/02/08 11:05:48;;;;;;;5.87;3.30;;;;;;;2.37;65.99;99267.34;5115063;27;20204;-57
2024/02/08 11:08:32;;;;;;;6.73;3.30;;;;;;;2.33;65.88;99278.34;5120204;28;20281;-58
2024/02/08 11:11:09;;;;;;;8.07;3.50;;;;;;;2.30;65.09;99266.44;5111011;28;20642;-52
2024/02/08 11:13:42;;;;;;;6.47;3.40;;;;;;;2.23;65.73;99261.28;5108375;28;20611;-55
2024/02/08 11:16:20;;;;;;;11.03;3.70;;;;;;;2.23;65.96;99259.59;5112554;28;20710;-51
2024/02/08 11:18:52;;;;;;;6.43;3.63;;;;;;;2.24;65.80;99255.34;5113349;27;20227;-56
2024/02/08 11:21:42;;;;;;;5.50;3.17;;;;;;;2.23;65.38;99258.75;5115582;27;20196;-55
2024/02/08 11:24:27;;;;;;;12.57;3.40;;;;;;;2.24;65.91;99251.13;5116686;27;20199;-61
2024/02/08 11:27:01;;;;;;;5.77;3.13;;;;;;;2.21;65.63;99246.03;5114082;27;20262;-59
2024/02/08 11:29:42;;;;;;;10.63;3.30;;;;;;;2.20;64.55;99249.41;5117224;27;20220;-53
2024/02/08 11:32:16;;;;;;;3.83;2.43;;;;;;;2.19;64.99;99250.25;5113717;27;20195;-54
2024/02/08 11:34:45;;;;;;;6.30;2.80;;;;;;;2.23;64.68;99253.66;5114499;27;20200;-53
2024/02/08 11:37:17;;;;;;;8.93;3.07;;;;;;;2.32;66.11;99253.72;5117128;27;20341;-55
2024/02/08 11:39:59;;;;;;;10.60;3.30;;;;;;;2.39;64.95;99251.28;5110281;28;20655;-53
2024/02/08 11:42:35;;;;;;;3.73;2.20;;;;;;;2.45;63.27;99255.56;5112188;27;20192;-54
2024/02/08 11:45:08;;;;;;;11.93;3.17;;;;;;;2.45;63.68;99259.78;5114282;27;20581;-52
2024/02/08 11:47:40;;;;;;;5.83;2.87;;;;;;;2.49;64.28;99246.25;5112372;27;20231;-50
2024/02/08 11:50:20;;;;;;;8.73;3.67;;;;;;;2.50;64.16;99246.25;5112468;28;20646;-51
2024/02/08 11:52:55;;;;;;;3.60;2.70;;;;;;;2.46;64.27;99246.22;5112173;28;20200;-56
2024/02/08 11:55:28;;;;;;;6.43;3.10;;;;;;;2.48;64.70;99249.66;5111350;27;20589;-53
2024/02/08 11:57:58;;;;;;;7.07;2.70;;;;;;;2.42;64.21;99241.13;5117272;27;20200;-57
2024/02/08 12:00:26;;;;;;;5.00;2.70;;;;;;;2.35;64.56;99231.72;5115405;27;20207;-51
2024/02/08 12:02:57;;;;;;;6.03;2.90;;;;;;;2.32;64.33;99239.34;5115450;27;20212;-54
2024/02/08 12:05:27;;;;;;;4.53;2.80;;;;;;;2.35;64.03;99238.50;5113069;27;20196;-53
2024/02/08 12:08:08;;;;;;;5.37;2.53;;;;;;;2.36;63.38;99220.75;5099521;27;20239;-51
2024/02/08 12:10:41;;;;;;;5.70;2.27;;;;;;;2.33;62.94;99222.41;5110437;27;20203;-52
2024/02/08 12:13:12;;;;;;;3.20;2.23;;;;;;;2.25;63.73;99217.25;5117963;27;20235;-52
2024/02/08 12:15:55;;;;;;;5.07;2.43;;;;;;;2.22;63.03;99207.06;5126851;27;20665;-58
2024/02/08 12:18:26;;;;;;;4.67;2.30;;;;;;;2.16;64.45;99218.00;5114725;27;20598;-52
2024/02/08 12:20:57;;;;;;;2.73;2.27;;;;;;;2.14;64.48;99208.69;5125513;27;20207;-51
2024/02/08 12:23:30;;;;;;;7.20;2.50;;;;;;;2.21;64.03;99213.00;5129780;27;20200;-54
2024/02/08 12:26:03;;;;;;;4.87;2.50;;;;;;;2.28;64.21;99212.19;5110963;27;20566;-51
2024/02/08 12:28:35;;;;;;;9.83;2.80;;;;;;;2.37;64.19;99216.50;5099384;27;20305;-52
2024/02/08 12:31:16;;;;;;;5.27;2.37;;;;;;;2.39;62.71;99215.69;5110399;27;20200;-54
2024/02/08 12:33:50;;;;;;;5.80;2.77;;;;;;;2.46;63.47;99218.25;5110949;27;20647;-54
2024/02/08 12:36:23;;;;;;;4.23;2.47;;;;;;;2.47;62.64;99207.25;5113931;27;20196;-54
2024/02/08 12:38:53;;;;;;;6.73;2.90;;;;;;;2.49;62.55;99213.19;5112248;28;20232;-52
2024/02/08 12:41:24;;;;;;;6.33;2.90;;;;;;;2.46;64.06;99215.72;5112924;27;20204;-57
2024/02/08 12:43:52;;;;;;;5.73;3.30;;;;;;;2.38;63.44;99203.78;5116407;27;20206;-58
2024/02/08 12:46:20;;;;;;;6.83;2.73;;;;;;;2.34;63.45;99206.31;5108111;27;20634;-59
2024/02/08 12:48:49;;;;;;;5.87;3.00;;;;;;;2.34;63.55;99197.00;5117209;27;20223;-52
2024/02/08 12:51:19;;;;;;;3.10;2.33;;;;;;;2.34;63.27;99186.81;5105685;27;20191;-52
2024/02/08 12:53:49;;;;;;;6.60;3.10;;;;;;;2.34;63.71;99191.91;5112687;27;20720;-53
2024/02/08 12:56:22;;;;;;;8.40;2.73;;;;;;;2.37;64.80;99189.41;5112849;28;20282;-54
2024/02/08 12:59:00;;;;;;;10.23;3.57;;;;;;;2.39;65.18;99189.41;5113662;27;20200;-54
2024/02/08 13:01:34;;;;;;;6.13;3.30;;;;;;;2.40;65.06;99181.78;5117398;27;20678;-54
2024/02/08 13:04:05;;;;;;;5.80;2.90;;;;;;;2.45;65.69;99178.44;5111860;27;20203;-59
2024/02/08 13:06:33;;;;;;;8.50;3.70;;;;;;;2.51;65.33;99183.56;5116000;27;20207;-66
2024/02/08 13:09:25;;;;;;;7.20;3.70;;;;;;;2.52;65.52;99175.09;5120391;27;20216;-52
2024/02/08 13:12:14;;;;;;;5.50;3.57;;;;;;;2.52;65.34;99173.41;5105079;27;20227;-50
2024/02/08 13:15:02;;;;;;;6.13;3.33;;;;;;;2.46;65.23;99164.88;5111696;28;20204;-54
2024/02/08 13:17:33;;;;;;;5.63;3.20;;;;;;;2.38;65.46;99165.66;5109241;27;20235;-47
2024/02/08 13:20:11;;;;;;;5.73;3.13;;;;;;;2.33;65.06;99164.78;5106828;28;20618;-51
2024/02/08 13:22:44;;;;;;;8.10;3.90;;;;;;;2.29;65.96;99167.31;5106781;27;20227;-54
2024/02/08 13:25:13;;;;;;;8.07;3.20;;;;;;;2.22;66.22;99161.31;5108636;27;20206;-54
2024/02/08 13:27:44;;;;;;;7.57;3.67;;;;;;;2.18;66.25;99160.44;5111764;27;20234;-51
2024/02/08 13:30:18;;;;;;;6.80;3.57;;;;;;;2.20;66.35;99157.91;5113584;27;20195;-58
2024/02/08 13:32:49;;;;;;;6.83;3.47;;;;;;;2.28;67.01;99161.34;5117631;27;20661;-54
2024/02/08 13:35:19;;;;;;;6.00;3.40;;;;;;;2.36;66.30;99159.75;5109850;27;20200;-56
2024/02/08 13:37:49;;;;;;;5.00;3.10;;;;;;;2.41;66.09;99152.97;5113510;27;20196;-63
2024/02/08 13:40:18;;;;;;;7.40;3.50;;;;;;;2.46;65.96;99142.84;5105683;27;20206;-54
2024/02/08 13:42:47;;;;;;;6.97;3.80;;;;;;;2.46;65.34;99152.16;5117294;27;20199;-53
2024/02/08 13:45:27;;;;;;;8.07;3.63;;;;;;;2.42;65.75;99151.28;5123552;27;20254;-54
2024/02/08 13:48:00;;;;;;;4.53;3.13;;;;;;;2.39;65.82;99148.72;5121277;27;20359;-54
2024/02/08 13:50:30;;;;;;;4.87;3.23;;;;;;;2.46;66.82;99154.69;5115872;27;20578;-51
2024/02/08 13:53:01;;;;;;;6.70;3.57;;;;;;;2.50;66.02;99153.88;5107521;28;20292;-53
2024/02/08 13:55:32;;;;;;;6.73;4.00;;;;;;;2.53;65.91;99151.34;5111273;27;20260;-51
2024/02/08 13:58:06;;;;;;;6.70;3.57;;;;;;;2.56;65.58;99144.59;5115036;27;20196;-53